createdAt,value
2023-03-23T16:02:06.537Z,90.40
2023-03-23T16:07:00.318Z,88.79
2023-03-23T16:11:53.739Z,92.07
2023-03-23T16:16:52.889Z,95.15
2023-03-23T16:21:46.405Z,92.24
2023-03-23T16:26:41.167Z,91.86
2023-03-23T16:31:34.493Z,92.36
2023-03-23T16:36:29.264Z,90.94
2023-03-23T16:41:22.678Z,91.61
2023-03-23T16:46:16.194Z,96.55
2023-03-23T16:51:10.299Z,93.52
2023-03-23T16:56:05.949Z,99.59
2023-03-23T17:00:59.251Z,100.00
2023-03-23T17:05:54.335Z,100.00
2023-03-23T17:10:48.372Z,100.00
2023-03-23T17:15:57.295Z,100.00
2023-03-23T17:20:53.890Z,100.00
2023-03-23T17:25:50.496Z,100.00
2023-03-23T17:30:46.327Z,100.00
2023-03-23T17:35:40.397Z,100.00
2023-03-23T17:40:34.635Z,100.00
2023-03-23T17:45:28.019Z,100.00
2023-03-23T17:50:23.020Z,100.00
2023-03-23T17:55:16.453Z,100.00
2023-03-23T18:00:12.152Z,100.00
2023-03-23T18:05:09.277Z,100.00
2023-03-23T18:10:11.664Z,100.00
2023-03-23T18:15:06.122Z,100.00
2023-03-23T18:19:59.570Z,100.00
2023-03-23T18:24:52.928Z,100.00
2023-03-23T18:29:47.835Z,100.00
2023-03-23T18:34:43.048Z,100.00
2023-03-23T18:39:37.024Z,100.00
2023-03-23T18:44:30.468Z,100.00
2023-03-23T18:49:26.812Z,100.00
2023-03-23T18:54:20.228Z,100.00
2023-03-23T18:59:13.638Z,100.00
2023-03-23T19:04:07.245Z,100.00
2023-03-23T19:09:02.127Z,100.00
2023-03-23T19:14:02.065Z,100.00
2023-03-23T19:18:56.029Z,100.00
2023-03-23T19:23:49.553Z,100.00
2023-03-23T19:29:19.231Z,100.00
2023-03-23T19:33:57.676Z,100.00
2023-03-23T19:38:51.824Z,100.00
2023-03-23T19:43:46.753Z,100.00
2023-03-23T19:48:40.478Z,100.00
2023-03-23T19:53:34.829Z,100.00
2023-03-23T19:58:28.681Z,100.00
2023-03-23T20:03:24.089Z,100.00
2023-03-23T20:08:17.906Z,100.00
2023-03-23T20:13:14.801Z,100.00
2023-03-23T20:18:08.455Z,100.00
2023-03-23T20:23:04.292Z,100.00
2023-03-23T20:27:57.655Z,100.00
2023-03-23T20:32:52.023Z,100.00
2023-03-23T20:37:45.733Z,100.00
2023-03-23T20:42:43.965Z,100.00
2023-03-23T20:47:38.725Z,100.00
2023-03-23T20:52:32.541Z,100.00
2023-03-23T20:57:32.185Z,100.00
2023-03-23T21:02:29.922Z,100.00
2023-03-23T21:07:25.879Z,100.00
2023-03-23T21:12:19.255Z,100.00
2023-03-23T21:17:12.846Z,100.00
2023-03-23T21:22:09.795Z,100.00
2023-03-23T21:27:03.532Z,100.00
2023-03-23T21:36:54.551Z,100.00
2023-03-23T21:41:50.089Z,100.00
2023-03-23T21:46:43.823Z,100.00
2023-03-23T21:51:38.991Z,100.00
2023-03-23T21:56:32.507Z,100.00
2023-03-23T22:01:28.295Z,100.00
2023-03-23T22:06:26.781Z,100.00
2023-03-23T22:11:24.290Z,100.00
2023-03-23T22:16:20.071Z,100.00
2023-03-23T22:21:16.987Z,100.00
2023-03-23T22:26:12.711Z,100.00
2023-03-23T22:31:09.478Z,100.00
2023-03-23T22:36:06.324Z,100.00
2023-03-23T22:41:02.506Z,100.00
2023-03-23T22:45:56.085Z,100.00
2023-03-23T22:50:50.520Z,100.00
2023-03-23T22:55:45.728Z,100.00
2023-03-23T23:00:45.445Z,100.00
2023-03-23T23:05:43.828Z,100.00
2023-03-23T23:10:37.543Z,100.00
2023-03-23T23:15:31.113Z,100.00
2023-03-23T23:20:26.053Z,100.00
2023-03-23T23:25:20.014Z,100.00
2023-03-23T23:30:14.670Z,100.00
2023-03-23T23:35:08.699Z,100.00
2023-03-23T23:40:06.537Z,100.00
2023-03-23T23:45:00.153Z,100.00
2023-03-23T23:49:53.722Z,100.00
2023-03-23T23:54:48.264Z,100.00
2023-03-23T23:59:43.300Z,100.00
